createdAt,value
2018-12-23T00:01:48.298Z,8.00
2018-12-23T00:06:27.488Z,8.00
2018-12-23T00:11:06.239Z,8.00
2018-12-23T00:15:44.983Z,8.00
2018-12-23T00:20:23.785Z,8.00
2018-12-23T00:25:02.726Z,8.00
2018-12-23T00:29:42.527Z,8.00
2018-12-23T00:34:21.192Z,8.00
2018-12-23T00:38:59.972Z,7.90
2018-12-23T00:43:39.017Z,7.90
2018-12-23T00:48:18.069Z,8.00
2018-12-23T00:52:57.017Z,8.00
2018-12-23T00:57:36.065Z,8.00
2018-12-23T01:02:16.052Z,8.10
2018-12-23T01:06:54.979Z,8.10
2018-12-23T01:11:33.825Z,8.10
2018-12-23T01:16:12.672Z,8.10
2018-12-23T01:20:51.615Z,8.10
2018-12-23T01:25:30.465Z,8.10
2018-12-23T01:30:09.813Z,8.10
2018-12-23T01:34:48.762Z,8.20
2018-12-23T01:39:28.102Z,8.20
2018-12-23T01:44:06.911Z,8.30
2018-12-23T01:48:45.673Z,8.30
2018-12-23T01:53:24.577Z,8.30
2018-12-23T01:58:03.418Z,8.40
2018-12-23T02:02:42.209Z,8.40
2018-12-23T02:07:21.106Z,8.40
2018-12-23T02:12:00.204Z,8.30
2018-12-23T02:16:39.673Z,8.30
2018-12-23T02:21:18.572Z,8.20
2018-12-23T02:25:57.819Z,8.10
2018-12-23T02:30:36.721Z,8.10
2018-12-23T02:35:15.518Z,8.00
2018-12-23T02:39:54.256Z,8.10
2018-12-23T02:44:32.980Z,8.10
2018-12-23T02:49:11.825Z,8.10
2018-12-23T02:53:50.756Z,8.10
2018-12-23T02:58:29.458Z,8.10
2018-12-23T03:03:08.144Z,8.10
2018-12-23T03:07:46.881Z,8.00
2018-12-23T03:12:25.692Z,8.00
2018-12-23T03:17:04.324Z,8.00
2018-12-23T03:21:43.181Z,8.00
2018-12-23T03:26:22.134Z,8.00
2018-12-23T03:31:00.883Z,8.00
2018-12-23T03:35:39.629Z,8.10
2018-12-23T03:40:18.243Z,8.10
2018-12-23T03:44:57.149Z,8.10
2018-12-23T03:49:36.236Z,8.00
2018-12-23T03:54:15.428Z,8.00
2018-12-23T03:58:54.551Z,8.00
2018-12-23T04:03:33.443Z,8.00
2018-12-23T04:08:12.321Z,7.90
2018-12-23T04:12:51.096Z,7.90
2018-12-23T04:17:30.052Z,7.90
2018-12-23T04:22:08.829Z,7.80
2018-12-23T04:26:47.574Z,7.80
2018-12-23T04:31:26.205Z,7.80
2018-12-23T04:36:05.004Z,7.80
2018-12-23T04:40:44.170Z,7.80
2018-12-23T04:45:23.008Z,7.80
2018-12-23T04:50:01.773Z,7.80
2018-12-23T04:54:40.566Z,7.70
2018-12-23T04:59:19.232Z,7.70
2018-12-23T05:03:58.039Z,7.70
2018-12-23T05:08:37.186Z,7.60
2018-12-23T05:13:16.074Z,7.50
2018-12-23T05:17:54.801Z,7.50
2018-12-23T05:22:33.619Z,7.50
2018-12-23T05:27:12.531Z,7.50
2018-12-23T05:31:51.216Z,7.50
2018-12-23T05:36:30.151Z,7.50
2018-12-23T05:41:08.904Z,7.50
2018-12-23T05:45:47.826Z,7.40
2018-12-23T05:50:26.582Z,7.40
2018-12-23T05:55:05.399Z,7.40
2018-12-23T05:59:44.192Z,7.40
2018-12-23T06:04:23.073Z,7.30
2018-12-23T06:09:02.759Z,7.30
2018-12-23T06:13:41.743Z,7.40
2018-12-23T06:18:20.628Z,7.40
2018-12-23T06:22:59.518Z,7.50
2018-12-23T06:27:38.256Z,7.60
2018-12-23T06:32:16.967Z,7.60
2018-12-23T06:36:57.635Z,7.60
2018-12-23T06:41:36.611Z,7.70
2018-12-23T06:46:15.423Z,7.70
2018-12-23T06:50:54.085Z,7.70
2018-12-23T06:55:32.872Z,7.70
2018-12-23T07:00:12.495Z,7.80
2018-12-23T07:04:51.379Z,7.80
2018-12-23T07:09:30.295Z,7.80
2018-12-23T07:14:09.116Z,7.90
2018-12-23T07:18:47.788Z,7.90
2018-12-23T07:23:26.776Z,7.90
2018-12-23T07:28:05.564Z,8.00
2018-12-23T07:32:44.388Z,8.10
2018-12-23T07:37:27.530Z,8.10
2018-12-23T07:42:03.951Z,8.10
2018-12-23T07:46:42.791Z,8.20
2018-12-23T07:51:21.583Z,8.20
2018-12-23T07:56:00.517Z,8.20
2018-12-23T08:00:39.211Z,8.20
2018-12-23T08:05:18.045Z,8.20
2018-12-23T08:09:56.957Z,8.30
2018-12-23T08:14:35.868Z,8.30
2018-12-23T08:19:15.157Z,8.30
2018-12-23T08:23:53.898Z,8.40
2018-12-23T08:28:32.604Z,8.50
2018-12-23T08:33:11.339Z,8.50
2018-12-23T08:37:50.205Z,8.60
2018-12-23T08:42:29.008Z,8.70
2018-12-23T08:47:07.763Z,8.70
2018-12-23T08:51:46.756Z,8.80
2018-12-23T08:56:26.342Z,8.90
2018-12-23T09:01:05.036Z,8.90
2018-12-23T09:05:43.845Z,9.00
2018-12-23T09:10:22.686Z,9.00
2018-12-23T09:15:01.537Z,9.00
2018-12-23T09:19:40.433Z,9.00
2018-12-23T09:24:19.397Z,9.10
2018-12-23T09:28:58.195Z,9.10
2018-12-23T09:33:37.125Z,9.10
2018-12-23T09:38:16.104Z,9.10
2018-12-23T09:42:54.892Z,9.10
2018-12-23T09:47:33.744Z,9.20
2018-12-23T09:52:12.407Z,9.20
2018-12-23T09:56:53.055Z,9.20
2018-12-23T10:01:31.979Z,9.20
2018-12-23T10:06:10.789Z,9.20
2018-12-23T10:10:49.439Z,9.20
2018-12-23T10:15:28.356Z,9.20
2018-12-23T10:20:08.571Z,9.10
2018-12-23T10:24:47.233Z,9.00
2018-12-23T10:29:25.961Z,9.00
2018-12-23T10:34:04.808Z,9.00
2018-12-23T10:38:43.673Z,9.00
2018-12-23T10:43:22.395Z,9.00
2018-12-23T10:48:01.160Z,9.00
2018-12-23T10:52:39.905Z,9.00
2018-12-23T10:57:18.818Z,9.00
2018-12-23T11:01:57.575Z,9.00
2018-12-23T11:06:36.579Z,9.00
2018-12-23T11:11:15.388Z,9.00
2018-12-23T11:15:54.421Z,9.00
2018-12-23T11:20:33.264Z,9.00
2018-12-23T11:25:12.129Z,9.00
2018-12-23T11:29:50.852Z,9.00
2018-12-23T11:34:29.775Z,8.90
2018-12-23T11:39:08.548Z,8.90
2018-12-23T11:43:47.584Z,8.90
2018-12-23T11:48:26.271Z,9.00
2018-12-23T11:53:05.214Z,9.00
2018-12-23T11:57:44.116Z,9.00
2018-12-23T12:02:22.840Z,9.00
2018-12-23T12:07:01.549Z,8.90
2018-12-23T12:11:40.382Z,8.90
2018-12-23T12:16:19.281Z,8.90
2018-12-23T12:20:57.924Z,8.90
2018-12-23T12:25:36.886Z,8.90
2018-12-23T12:30:15.699Z,8.90
2018-12-23T12:34:54.563Z,8.90
2018-12-23T12:39:33.592Z,8.90
2018-12-23T12:45:04.726Z,8.90
2018-12-23T12:50:10.441Z,8.90
2018-12-23T12:55:16.801Z,8.90
2018-12-23T13:00:23.678Z,8.90
2018-12-23T13:05:29.490Z,8.80
2018-12-23T13:10:35.093Z,8.90
2018-12-23T13:15:40.622Z,8.90
2018-12-23T13:20:48.701Z,8.90
2018-12-23T13:25:54.665Z,8.90
2018-12-23T13:31:01.054Z,9.00
2018-12-23T13:36:06.921Z,9.00
2018-12-23T13:41:12.806Z,9.10
2018-12-23T13:46:19.237Z,9.20
2018-12-23T13:51:25.673Z,9.20
2018-12-23T13:56:34.374Z,9.20
2018-12-23T14:02:06.768Z,9.30
2018-12-23T14:07:39.175Z,9.30
2018-12-23T14:12:44.848Z,9.40
2018-12-23T14:17:50.986Z,9.50
2018-12-23T14:22:56.993Z,9.50
2018-12-23T14:28:02.933Z,9.60
2018-12-23T14:33:08.693Z,9.60
2018-12-23T14:38:15.086Z,9.70
2018-12-23T14:43:21.474Z,9.80
2018-12-23T14:48:27.345Z,9.90
2018-12-23T14:53:32.945Z,10.00
2018-12-23T14:58:38.998Z,10.10
2018-12-23T15:03:44.898Z,10.20
2018-12-23T15:08:50.705Z,10.20
2018-12-23T15:13:57.051Z,10.40
2018-12-23T15:19:02.833Z,10.40
2018-12-23T15:24:09.338Z,10.50
2018-12-23T15:29:15.665Z,10.50
2018-12-23T15:34:21.579Z,10.60
2018-12-23T15:39:27.216Z,10.70
2018-12-23T15:44:35.278Z,10.80
2018-12-23T15:49:41.750Z,10.90
2018-12-23T15:54:48.167Z,10.90
2018-12-23T15:59:53.799Z,11.00
2018-12-23T16:04:59.437Z,11.00
2018-12-23T16:10:05.473Z,11.10
2018-12-23T16:15:11.444Z,11.10
2018-12-23T16:20:17.517Z,11.10
2018-12-23T16:25:24.057Z,11.20
2018-12-23T16:30:29.736Z,11.20
2018-12-23T16:35:36.013Z,11.20
2018-12-23T16:40:42.033Z,11.20
2018-12-23T16:45:48.526Z,11.30
2018-12-23T16:50:54.617Z,11.30
2018-12-23T16:56:00.369Z,11.30
2018-12-23T17:01:06.403Z,11.30
2018-12-23T17:06:14.282Z,11.40
2018-12-23T17:11:20.658Z,11.40
2018-12-23T17:16:26.733Z,11.40
2018-12-23T17:21:35.654Z,11.40
2018-12-23T17:26:43.058Z,11.40
2018-12-23T17:31:50.501Z,11.50
2018-12-23T17:36:58.296Z,11.50
2018-12-23T17:42:04.014Z,11.50
2018-12-23T17:47:10.441Z,11.50
2018-12-23T17:52:23.127Z,11.50
2018-12-23T17:57:24.318Z,11.60
2018-12-23T18:02:30.799Z,11.60
2018-12-23T18:07:37.138Z,11.60
2018-12-23T18:12:42.814Z,11.60
2018-12-23T18:17:48.404Z,11.60
2018-12-23T18:22:54.548Z,11.70
2018-12-23T18:28:00.577Z,11.70
2018-12-23T18:33:06.977Z,11.70
2018-12-23T18:38:13.474Z,11.70
2018-12-23T18:43:19.126Z,11.70
2018-12-23T18:48:25.546Z,11.70
2018-12-23T18:53:31.941Z,11.80
2018-12-23T18:58:37.500Z,11.80
2018-12-23T19:03:43.502Z,11.80
2018-12-23T19:08:49.901Z,11.80
2018-12-23T19:13:56.406Z,11.80
2018-12-23T19:19:02.447Z,11.80
2018-12-23T19:24:08.805Z,11.80
2018-12-23T19:29:15.164Z,11.80
2018-12-23T19:34:21.487Z,11.80
2018-12-23T19:39:27.779Z,11.90
2018-12-23T19:44:33.965Z,11.90
2018-12-23T19:49:40.126Z,11.90
2018-12-23T19:54:46.488Z,11.90
2018-12-23T19:59:53.704Z,11.90
2018-12-23T20:05:00.094Z,11.90
2018-12-23T20:10:06.601Z,11.90
2018-12-23T20:15:12.168Z,11.90
2018-12-23T20:20:17.862Z,11.90
2018-12-23T20:25:23.608Z,11.90
2018-12-23T20:30:30.111Z,11.90
2018-12-23T20:35:46.904Z,11.90
2018-12-23T20:41:15.208Z,11.90
2018-12-23T20:46:25.402Z,11.80
2018-12-23T20:51:29.453Z,11.90
2018-12-23T20:56:42.678Z,11.90
2018-12-23T21:02:15.063Z,11.90
2018-12-23T21:07:47.462Z,11.90
2018-12-23T21:12:53.569Z,11.90
2018-12-23T21:17:59.712Z,11.90
2018-12-23T21:23:06.064Z,11.90
2018-12-23T21:28:12.490Z,11.90
2018-12-23T21:33:18.381Z,11.90
2018-12-23T21:38:24.521Z,11.90
2018-12-23T21:43:30.193Z,11.90
2018-12-23T21:48:36.293Z,11.90
2018-12-23T21:53:42.585Z,11.90
2018-12-23T21:58:48.436Z,11.90
2018-12-23T22:03:54.079Z,11.90
2018-12-23T22:08:59.930Z,11.90
2018-12-23T22:14:05.983Z,11.90
2018-12-23T22:19:12.178Z,11.90
2018-12-23T22:24:18.628Z,11.90
2018-12-23T22:29:24.789Z,11.90
2018-12-23T22:34:30.791Z,11.90
2018-12-23T22:39:36.907Z,11.90
2018-12-23T22:44:42.440Z,11.90
2018-12-23T22:49:51.319Z,11.90
2018-12-23T22:54:58.943Z,11.90
2018-12-23T23:00:06.418Z,11.90
2018-12-23T23:05:13.025Z,11.90
2018-12-23T23:10:21.026Z,11.90
2018-12-23T23:15:28.938Z,11.90
2018-12-23T23:20:36.872Z,11.90
2018-12-23T23:25:44.076Z,11.90
2018-12-23T23:30:51.950Z,11.90
2018-12-23T23:35:58.837Z,11.90
2018-12-23T23:41:06.167Z,11.90
2018-12-23T23:46:11.918Z,11.90
2018-12-23T23:51:17.607Z,11.90
2018-12-23T23:56:23.616Z,11.90
